createdAt,value
2023-01-09T00:01:23.694Z,7.90
2023-01-09T00:03:50.473Z,8.00
2023-01-09T00:06:17.208Z,7.90
2023-01-09T00:08:43.893Z,8.00
2023-01-09T00:11:10.678Z,8.00
2023-01-09T00:13:37.588Z,8.00
2023-01-09T00:16:07.931Z,8.10
2023-01-09T00:18:35.082Z,8.10
2023-01-09T00:21:06.411Z,8.10
2023-01-09T00:23:33.255Z,8.10
2023-01-09T00:26:08.395Z,8.10
2023-01-09T00:28:35.163Z,8.10
2023-01-09T00:31:02.509Z,8.10
2023-01-09T00:33:33.106Z,8.10
2023-01-09T00:36:00.562Z,8.10
2023-01-09T00:38:27.829Z,8.10
2023-01-09T00:40:54.582Z,8.10
2023-01-09T00:43:21.447Z,8.10
2023-01-09T00:45:48.194Z,8.10
2023-01-09T00:48:17.581Z,8.10
2023-01-09T00:50:44.297Z,8.10
2023-01-09T00:53:15.834Z,8.00
2023-01-09T00:55:42.526Z,8.10
2023-01-09T00:58:09.192Z,8.10
2023-01-09T01:00:35.900Z,8.10
2023-01-09T01:03:02.688Z,8.10
2023-01-09T01:05:29.421Z,8.10
2023-01-09T01:07:56.170Z,8.10
2023-01-09T01:10:24.253Z,8.00
2023-01-09T01:12:50.992Z,8.10
2023-01-09T01:15:18.297Z,8.00
2023-01-09T01:17:45.188Z,8.10
2023-01-09T01:20:17.359Z,8.10
2023-01-09T01:22:44.178Z,8.00
2023-01-09T01:25:12.016Z,8.00
2023-01-09T01:27:38.847Z,8.00
2023-01-09T01:30:06.840Z,8.00
2023-01-09T01:32:33.613Z,8.00
2023-01-09T01:35:00.302Z,8.00
2023-01-09T01:37:27.079Z,8.00
2023-01-09T01:39:53.847Z,8.00
2023-01-09T01:42:20.524Z,8.00
2023-01-09T01:45:02.303Z,8.00
2023-01-09T01:47:42.340Z,8.00
2023-01-09T01:50:32.976Z,7.90
2023-01-09T01:53:07.251Z,7.90
2023-01-09T01:55:39.022Z,7.90
2023-01-09T01:58:06.203Z,7.90
2023-01-09T02:00:35.656Z,7.90
2023-01-09T02:03:02.593Z,7.90
2023-01-09T02:05:29.304Z,8.00
2023-01-09T02:07:56.015Z,8.00
2023-01-09T02:10:22.717Z,7.90
2023-01-09T02:12:49.608Z,7.90
2023-01-09T02:15:16.330Z,7.90
2023-01-09T02:18:05.746Z,7.90
2023-01-09T02:20:39.509Z,7.90
2023-01-09T02:23:11.983Z,7.90
2023-01-09T02:26:06.730Z,7.90
2023-01-09T02:29:01.187Z,7.90
2023-01-09T02:31:33.876Z,7.80
2023-01-09T02:34:12.338Z,7.80
2023-01-09T02:36:47.471Z,7.80
2023-01-09T02:39:19.993Z,7.80
2023-01-09T02:41:58.215Z,7.80
2023-01-09T02:44:29.430Z,7.70
2023-01-09T02:47:25.226Z,7.70
2023-01-09T02:49:56.271Z,7.60
2023-01-09T02:52:45.617Z,7.50
2023-01-09T02:55:16.452Z,7.50
2023-01-09T02:58:04.489Z,7.40
2023-01-09T03:00:53.902Z,7.40
2023-01-09T03:03:36.774Z,7.30
2023-01-09T03:06:21.626Z,7.30
2023-01-09T03:08:51.008Z,7.20
2023-01-09T03:11:17.692Z,7.20
2023-01-09T03:13:50.371Z,7.20
2023-01-09T03:16:20.312Z,7.20
2023-01-09T03:18:47.297Z,7.10
2023-01-09T03:21:14.003Z,7.10
2023-01-09T03:23:50.781Z,7.10
2023-01-09T03:26:17.895Z,7.10
2023-01-09T03:28:44.739Z,7.00
2023-01-09T03:31:11.462Z,7.00
2023-01-09T03:33:38.225Z,7.00
2023-01-09T03:36:05.211Z,7.00
2023-01-09T03:38:31.941Z,7.00
2023-01-09T03:40:58.713Z,7.00
2023-01-09T03:43:25.495Z,6.90
2023-01-09T03:45:52.281Z,6.90
2023-01-09T03:48:19.044Z,6.90
2023-01-09T03:50:47.837Z,6.90
2023-01-09T03:53:14.682Z,6.80
2023-01-09T03:55:46.336Z,6.90
2023-01-09T03:58:13.586Z,6.80
2023-01-09T04:00:40.361Z,6.80
2023-01-09T04:03:07.950Z,6.80
2023-01-09T04:05:34.911Z,6.80
2023-01-09T04:08:01.768Z,6.80
2023-01-09T04:10:28.515Z,6.80
2023-01-09T04:12:55.326Z,6.80
2023-01-09T04:15:22.298Z,6.80
2023-01-09T04:17:49.423Z,6.80
2023-01-09T04:20:16.293Z,6.80
2023-01-09T04:22:43.023Z,6.80
2023-01-09T04:25:10.519Z,6.70
2023-01-09T04:27:37.331Z,6.80
2023-01-09T04:30:09.716Z,6.70
2023-01-09T04:32:36.407Z,6.80
2023-01-09T04:35:03.177Z,6.80
2023-01-09T04:37:29.903Z,6.80
2023-01-09T04:39:56.607Z,6.80
2023-01-09T04:42:23.491Z,6.80
2023-01-09T04:44:50.230Z,6.80
2023-01-09T04:47:16.944Z,6.80
2023-01-09T04:49:43.667Z,6.80
2023-01-09T04:52:10.381Z,6.80
2023-01-09T04:54:37.076Z,6.80
2023-01-09T04:57:03.823Z,6.90
2023-01-09T04:59:30.534Z,6.90
2023-01-09T05:01:57.374Z,6.80
2023-01-09T05:04:25.283Z,6.80
2023-01-09T05:06:53.194Z,6.80
2023-01-09T05:09:19.915Z,6.80
2023-01-09T05:11:46.583Z,6.80
2023-01-09T05:14:13.286Z,6.80
2023-01-09T05:16:40.117Z,6.80
2023-01-09T05:19:06.844Z,6.80
2023-01-09T05:21:33.519Z,6.80
2023-01-09T05:24:00.200Z,6.80
2023-01-09T05:26:26.880Z,6.80
2023-01-09T05:28:53.823Z,6.80
2023-01-09T05:31:20.702Z,6.80
2023-01-09T05:33:47.511Z,6.80
2023-01-09T05:36:14.285Z,6.80
2023-01-09T05:38:41.007Z,6.80
2023-01-09T05:41:07.696Z,6.80
2023-01-09T05:43:34.520Z,6.80
2023-01-09T05:46:01.322Z,6.70
2023-01-09T05:48:28.094Z,6.70
2023-01-09T05:50:54.882Z,6.70
2023-01-09T05:53:21.578Z,6.70
2023-01-09T05:55:48.314Z,6.70
2023-01-09T05:58:15.023Z,6.70
2023-01-09T06:00:41.717Z,6.70
2023-01-09T06:03:08.478Z,6.70
2023-01-09T06:05:35.277Z,6.70
2023-01-09T06:08:02.032Z,6.70
2023-01-09T06:10:28.720Z,6.70
2023-01-09T06:12:55.442Z,6.70
2023-01-09T06:15:22.291Z,6.70
2023-01-09T06:17:49.426Z,6.80
2023-01-09T06:20:16.854Z,6.70
2023-01-09T06:22:44.564Z,6.80
2023-01-09T06:25:12.713Z,6.70
2023-01-09T06:27:40.083Z,6.80
2023-01-09T06:30:07.575Z,6.70
2023-01-09T06:32:34.268Z,6.70
2023-01-09T06:35:01.035Z,6.70
2023-01-09T06:37:27.769Z,6.70
2023-01-09T06:39:54.479Z,6.70
2023-01-09T06:42:21.171Z,6.70
2023-01-09T06:44:47.872Z,6.70
2023-01-09T06:47:14.573Z,6.70
2023-01-09T06:49:41.436Z,6.70
2023-01-09T06:52:08.121Z,6.70
2023-01-09T06:54:34.944Z,6.70
2023-01-09T06:57:01.642Z,6.70
2023-01-09T06:59:28.954Z,6.70
2023-01-09T07:01:56.678Z,6.70
2023-01-09T07:04:23.498Z,6.70
2023-01-09T07:06:50.255Z,6.70
2023-01-09T07:09:16.952Z,6.70
2023-01-09T07:11:43.651Z,6.70
2023-01-09T07:14:10.373Z,6.70
2023-01-09T07:16:37.104Z,6.70
2023-01-09T07:19:03.814Z,6.70
2023-01-09T07:21:32.726Z,6.70
2023-01-09T07:23:59.741Z,6.70
2023-01-09T07:26:26.431Z,6.70
2023-01-09T07:28:53.140Z,6.70
2023-01-09T07:31:22.237Z,6.70
2023-01-09T07:33:48.963Z,6.80
2023-01-09T07:36:15.719Z,6.80
2023-01-09T07:38:42.474Z,6.80
2023-01-09T07:41:09.267Z,6.80
2023-01-09T07:43:37.066Z,6.80
2023-01-09T07:46:04.018Z,6.80
2023-01-09T07:48:30.825Z,6.80
2023-01-09T07:50:57.545Z,6.80
2023-01-09T07:53:24.278Z,6.80
2023-01-09T07:55:50.973Z,6.80
2023-01-09T07:58:17.763Z,6.70
2023-01-09T08:00:44.445Z,6.70
2023-01-09T08:03:11.171Z,6.70
2023-01-09T08:05:37.918Z,6.70
2023-01-09T08:08:04.736Z,6.70
2023-01-09T08:10:31.463Z,6.70
2023-01-09T08:12:58.168Z,6.70
2023-01-09T08:15:24.882Z,6.70
2023-01-09T08:17:51.648Z,6.70
2023-01-09T08:20:18.486Z,6.70
2023-01-09T08:22:46.705Z,6.70
2023-01-09T08:25:13.417Z,6.70
2023-01-09T08:27:40.117Z,6.70
2023-01-09T08:30:07.308Z,6.70
2023-01-09T08:32:34.021Z,6.70
2023-01-09T08:35:00.899Z,6.70
2023-01-09T08:37:27.799Z,6.70
2023-01-09T08:39:54.543Z,6.70
2023-01-09T08:42:21.239Z,6.70
2023-01-09T08:44:47.937Z,6.70
2023-01-09T08:47:16.145Z,6.70
2023-01-09T08:49:42.863Z,6.70
2023-01-09T08:52:09.618Z,6.70
2023-01-09T08:54:36.330Z,6.70
2023-01-09T08:57:03.073Z,6.80
2023-01-09T08:59:29.827Z,6.80
2023-01-09T09:01:56.619Z,6.80
2023-01-09T09:04:23.867Z,6.80
2023-01-09T09:06:50.560Z,6.90
2023-01-09T09:09:17.263Z,6.90
2023-01-09T09:11:43.995Z,6.90
2023-01-09T09:14:10.717Z,6.90
2023-01-09T09:16:37.408Z,6.90
2023-01-09T09:19:04.108Z,7.00
2023-01-09T09:21:30.779Z,7.20
2023-01-09T09:23:57.505Z,7.30
2023-01-09T09:26:24.212Z,7.40
2023-01-09T09:28:50.937Z,7.50
2023-01-09T09:31:17.715Z,7.60
2023-01-09T09:33:44.467Z,7.60
2023-01-09T09:36:11.167Z,7.70
2023-01-09T09:38:37.877Z,7.70
2023-01-09T09:41:04.542Z,7.80
2023-01-09T09:43:34.121Z,7.80
2023-01-09T09:46:32.883Z,7.80
2023-01-09T09:49:07.147Z,7.80
2023-01-09T09:51:48.047Z,7.80
2023-01-09T09:54:40.112Z,7.80
2023-01-09T09:57:06.834Z,8.10
2023-01-09T09:59:34.477Z,8.20
2023-01-09T10:02:08.798Z,8.30
2023-01-09T10:04:37.120Z,8.40
2023-01-09T10:07:05.874Z,8.50
2023-01-09T10:10:01.735Z,8.50
2023-01-09T10:12:34.143Z,8.50
2023-01-09T10:15:16.602Z,8.60
2023-01-09T10:17:59.184Z,8.60
2023-01-09T10:20:34.819Z,8.80
2023-01-09T10:23:01.532Z,8.90
2023-01-09T10:25:32.226Z,8.90
2023-01-09T10:28:19.958Z,8.90
2023-01-09T10:30:58.662Z,8.90
2023-01-09T10:33:32.292Z,8.80
2023-01-09T10:36:07.892Z,8.70
2023-01-09T10:38:39.973Z,8.80
2023-01-09T10:41:12.782Z,8.80
2023-01-09T10:44:14.673Z,8.90
2023-01-09T10:46:54.332Z,8.90
2023-01-09T10:49:21.360Z,9.00
2023-01-09T10:51:52.124Z,9.10
2023-01-09T10:54:20.156Z,9.30
2023-01-09T10:57:02.527Z,9.20
2023-01-09T10:59:29.244Z,9.20
2023-01-09T11:01:56.006Z,9.30
2023-01-09T11:04:34.558Z,9.20
2023-01-09T11:07:06.704Z,9.20
2023-01-09T11:09:55.247Z,9.30
2023-01-09T11:12:26.498Z,9.30
2023-01-09T11:14:53.434Z,9.20
2023-01-09T11:17:22.672Z,9.20
2023-01-09T11:20:05.842Z,9.20
2023-01-09T11:22:51.215Z,9.20
2023-01-09T11:25:19.145Z,9.30
2023-01-09T11:28:06.076Z,9.40
2023-01-09T11:30:37.593Z,9.50
2023-01-09T11:33:19.996Z,9.60
2023-01-09T11:36:15.132Z,10.10
2023-01-09T11:38:48.779Z,10.50
2023-01-09T11:41:21.256Z,10.80
2023-01-09T11:43:50.000Z,11.10
2023-01-09T11:46:34.482Z,11.30
2023-01-09T11:49:02.524Z,11.50
2023-01-09T11:51:33.607Z,11.50
2023-01-09T11:54:23.712Z,11.40
2023-01-09T11:56:50.449Z,11.20
2023-01-09T11:59:20.335Z,11.10
2023-01-09T12:02:05.823Z,10.90
2023-01-09T12:04:37.991Z,10.80
2023-01-09T12:07:15.001Z,10.70
2023-01-09T12:09:50.817Z,10.60
2023-01-09T12:12:39.098Z,10.60
2023-01-09T12:15:30.131Z,10.50
2023-01-09T12:18:18.651Z,10.30
2023-01-09T12:21:13.329Z,10.20
2023-01-09T12:23:42.813Z,10.10
2023-01-09T12:26:31.280Z,10.00
2023-01-09T12:29:19.296Z,10.00
2023-01-09T12:31:57.959Z,10.10
2023-01-09T12:34:30.816Z,10.10
2023-01-09T12:37:00.577Z,10.20
2023-01-09T12:39:37.402Z,10.10
2023-01-09T12:42:22.885Z,10.10
2023-01-09T12:44:53.375Z,10.10
2023-01-09T12:47:42.099Z,10.10
2023-01-09T12:50:23.972Z,10.10
2023-01-09T12:53:11.547Z,10.00
2023-01-09T12:55:41.025Z,10.00
2023-01-09T12:58:24.258Z,10.00
2023-01-09T13:00:50.965Z,10.10
2023-01-09T13:03:34.332Z,10.30
2023-01-09T13:06:01.134Z,10.30
2023-01-09T13:08:33.759Z,10.30
2023-01-09T13:11:19.783Z,10.30
2023-01-09T13:14:13.292Z,10.30
2023-01-09T13:16:43.972Z,10.30
2023-01-09T13:19:34.416Z,10.20
2023-01-09T13:22:03.029Z,10.10
2023-01-09T13:25:17.233Z,10.00
2023-01-09T13:27:46.146Z,10.10
2023-01-09T13:30:31.411Z,10.10
2023-01-09T13:33:11.721Z,10.10
2023-01-09T13:35:55.272Z,10.10
2023-01-09T13:38:29.297Z,10.00
2023-01-09T13:41:05.162Z,9.90
2023-01-09T13:43:55.494Z,9.90
2023-01-09T13:46:22.709Z,9.80
2023-01-09T13:48:49.432Z,9.70
2023-01-09T13:51:43.885Z,9.70
2023-01-09T13:54:10.568Z,9.80
2023-01-09T13:57:20.424Z,9.90
2023-01-09T13:59:47.606Z,9.90
2023-01-09T14:02:35.897Z,9.90
2023-01-09T14:05:03.737Z,9.90
2023-01-09T14:07:34.739Z,9.90
2023-01-09T14:10:03.385Z,9.90
2023-01-09T14:12:31.567Z,10.00
2023-01-09T14:14:59.745Z,10.00
2023-01-09T14:17:34.270Z,10.00
2023-01-09T14:20:04.251Z,9.90
2023-01-09T14:22:56.540Z,9.90
2023-01-09T14:25:31.344Z,9.90
2023-01-09T14:27:58.037Z,9.90
2023-01-09T14:30:27.479Z,9.90
2023-01-09T14:33:18.548Z,9.90
2023-01-09T14:36:16.702Z,9.80
2023-01-09T14:38:52.885Z,9.80
2023-01-09T14:41:36.346Z,9.70
2023-01-09T14:44:06.876Z,9.60
2023-01-09T14:46:34.577Z,9.50
2023-01-09T14:49:07.322Z,9.40
2023-01-09T14:51:35.942Z,9.30
2023-01-09T14:54:13.836Z,9.30
2023-01-09T14:56:45.855Z,9.20
2023-01-09T14:59:13.264Z,9.20
2023-01-09T15:01:44.820Z,9.20
2023-01-09T15:04:26.662Z,9.30
2023-01-09T15:06:53.360Z,9.30
2023-01-09T15:09:28.569Z,9.20
2023-01-09T15:11:57.086Z,9.20
2023-01-09T15:14:31.144Z,9.30
2023-01-09T15:16:57.980Z,9.40
2023-01-09T15:19:24.734Z,9.40
2023-01-09T15:22:30.558Z,9.30
2023-01-09T15:24:57.856Z,9.30
2023-01-09T15:27:24.848Z,9.20
2023-01-09T15:29:52.007Z,9.10
2023-01-09T15:32:21.776Z,9.00
2023-01-09T15:34:48.703Z,9.00
2023-01-09T15:37:28.877Z,8.90
2023-01-09T15:39:56.881Z,8.80
2023-01-09T15:42:28.349Z,8.70
2023-01-09T15:44:55.039Z,8.60
2023-01-09T15:47:23.764Z,8.60
2023-01-09T15:49:50.601Z,8.40
2023-01-09T15:52:17.375Z,8.40
2023-01-09T15:54:45.092Z,8.40
2023-01-09T15:57:27.269Z,8.30
2023-01-09T15:59:54.280Z,8.40
2023-01-09T16:02:22.049Z,8.30
2023-01-09T16:04:48.918Z,8.30
2023-01-09T16:07:16.947Z,8.20
2023-01-09T16:09:45.072Z,8.20
2023-01-09T16:12:21.890Z,8.10
2023-01-09T16:14:56.485Z,8.10
2023-01-09T16:17:23.240Z,8.00
2023-01-09T16:20:12.007Z,8.00
2023-01-09T16:22:52.155Z,8.00
2023-01-09T16:25:32.213Z,7.90
2023-01-09T16:28:28.397Z,7.90
2023-01-09T16:31:06.248Z,7.90
2023-01-09T16:33:33.016Z,7.80
2023-01-09T16:35:59.713Z,7.80
2023-01-09T16:38:26.723Z,7.80
2023-01-09T16:41:03.966Z,7.80
2023-01-09T16:43:30.645Z,7.80
2023-01-09T16:45:57.382Z,7.80
2023-01-09T16:48:24.076Z,7.80
2023-01-09T16:50:50.828Z,7.80
2023-01-09T16:53:18.658Z,7.80
2023-01-09T16:55:45.997Z,7.80
2023-01-09T16:58:18.748Z,7.80
2023-01-09T17:00:45.625Z,7.80
2023-01-09T17:03:15.372Z,7.80
2023-01-09T17:05:42.320Z,7.90
2023-01-09T17:08:24.931Z,7.90
2023-01-09T17:10:52.051Z,7.90
2023-01-09T17:13:18.758Z,7.90
2023-01-09T17:15:45.676Z,8.00
2023-01-09T17:18:19.946Z,8.00
2023-01-09T17:20:48.484Z,8.00
2023-01-09T17:23:15.236Z,8.00
2023-01-09T17:25:42.247Z,8.00
2023-01-09T17:28:11.189Z,8.00
2023-01-09T17:30:37.932Z,7.90
2023-01-09T17:33:04.711Z,7.90
2023-01-09T17:35:31.410Z,7.90
2023-01-09T17:37:58.115Z,7.80
2023-01-09T17:40:25.149Z,7.80
2023-01-09T17:42:51.936Z,7.80
2023-01-09T17:45:18.684Z,7.80
2023-01-09T17:47:45.399Z,7.80
2023-01-09T17:50:19.322Z,7.80
2023-01-09T17:52:47.443Z,7.80
2023-01-09T17:55:14.326Z,7.80
2023-01-09T17:57:42.796Z,7.80
2023-01-09T18:00:18.781Z,7.70
2023-01-09T18:02:45.569Z,7.70
2023-01-09T18:05:12.370Z,7.70
2023-01-09T18:07:39.145Z,7.60
2023-01-09T18:10:06.351Z,7.60
2023-01-09T18:12:33.083Z,7.60
2023-01-09T18:14:59.786Z,7.60
2023-01-09T18:17:26.481Z,7.50
2023-01-09T18:19:53.238Z,7.50
2023-01-09T18:22:19.951Z,7.50
2023-01-09T18:24:46.710Z,7.50
2023-01-09T18:27:13.405Z,7.50
2023-01-09T18:29:40.160Z,7.50
2023-01-09T18:32:06.949Z,7.40
2023-01-09T18:34:33.713Z,7.50
2023-01-09T18:37:00.500Z,7.40
2023-01-09T18:39:27.292Z,7.40
2023-01-09T18:41:54.023Z,7.40
2023-01-09T18:44:20.841Z,7.40
2023-01-09T18:46:47.825Z,7.40
2023-01-09T18:49:14.521Z,7.30
2023-01-09T18:51:41.248Z,7.30
2023-01-09T18:54:07.984Z,7.30
2023-01-09T18:56:34.925Z,7.30
2023-01-09T18:59:01.772Z,7.30
2023-01-09T19:01:29.318Z,7.30
2023-01-09T19:03:56.738Z,7.20
2023-01-09T19:06:23.542Z,7.20
2023-01-09T19:08:50.267Z,7.20
2023-01-09T19:11:17.059Z,7.20
2023-01-09T19:13:43.788Z,7.20
2023-01-09T19:16:10.749Z,7.20
2023-01-09T19:18:41.617Z,7.10
2023-01-09T19:21:11.171Z,7.20
2023-01-09T19:23:37.913Z,7.10
2023-01-09T19:26:05.867Z,7.10
2023-01-09T19:28:32.700Z,7.10
2023-01-09T19:30:59.473Z,7.10
2023-01-09T19:33:27.566Z,7.10
2023-01-09T19:35:54.326Z,7.10
2023-01-09T19:38:21.367Z,7.00
2023-01-09T19:40:48.125Z,7.00
2023-01-09T19:43:15.403Z,7.00
2023-01-09T19:45:42.116Z,7.00
2023-01-09T19:48:08.848Z,7.00
2023-01-09T19:50:35.583Z,7.00
2023-01-09T19:53:02.280Z,7.00
2023-01-09T19:55:29.000Z,6.90
2023-01-09T19:57:55.807Z,6.90
2023-01-09T20:00:22.592Z,6.90
2023-01-09T20:02:49.454Z,6.90
2023-01-09T20:05:16.329Z,6.90
2023-01-09T20:07:43.029Z,6.90
2023-01-09T20:10:10.297Z,6.90
2023-01-09T20:12:37.056Z,6.90
2023-01-09T20:15:04.077Z,6.90
2023-01-09T20:17:32.619Z,6.90
2023-01-09T20:19:59.354Z,6.90
2023-01-09T20:22:26.049Z,6.90
2023-01-09T20:24:52.778Z,6.90
2023-01-09T20:27:19.525Z,6.90
2023-01-09T20:29:47.685Z,6.80
2023-01-09T20:32:14.381Z,6.80
2023-01-09T20:34:41.108Z,6.80
2023-01-09T20:37:07.956Z,6.80
2023-01-09T20:39:34.736Z,6.80
2023-01-09T20:42:01.466Z,6.80
2023-01-09T20:44:28.224Z,6.80
2023-01-09T20:46:54.884Z,6.80
2023-01-09T20:49:21.694Z,6.80
2023-01-09T20:51:50.142Z,6.80
2023-01-09T20:54:17.409Z,6.70
2023-01-09T20:56:44.124Z,6.70
2023-01-09T20:59:12.377Z,6.70
2023-01-09T21:01:39.269Z,6.70
2023-01-09T21:04:06.026Z,6.70
2023-01-09T21:06:32.801Z,6.70
2023-01-09T21:08:59.494Z,6.70
2023-01-09T21:11:26.213Z,6.70
2023-01-09T21:13:52.909Z,6.70
2023-01-09T21:16:20.978Z,6.70
2023-01-09T21:18:47.786Z,6.70
2023-01-09T21:21:16.181Z,6.60
2023-01-09T21:23:52.633Z,6.70
2023-01-09T21:26:19.510Z,6.60
2023-01-09T21:28:46.216Z,6.70
2023-01-09T21:31:13.581Z,6.70
2023-01-09T21:33:40.355Z,6.70
2023-01-09T21:36:07.672Z,6.70
2023-01-09T21:38:34.433Z,6.70
2023-01-09T21:41:01.531Z,6.70
2023-01-09T21:43:29.269Z,6.70
2023-01-09T21:45:56.060Z,6.70
2023-01-09T21:48:23.083Z,6.70
2023-01-09T21:50:50.191Z,6.70
2023-01-09T21:53:16.900Z,6.70
2023-01-09T21:55:43.560Z,6.60
2023-01-09T21:58:10.486Z,6.60
2023-01-09T22:00:37.334Z,6.70
2023-01-09T22:03:04.299Z,6.70
2023-01-09T22:05:31.020Z,6.70
2023-01-09T22:07:57.993Z,6.60
2023-01-09T22:10:24.743Z,6.60
2023-01-09T22:12:53.571Z,6.60
2023-01-09T22:15:20.300Z,6.60
2023-01-09T22:17:46.985Z,6.60
2023-01-09T22:20:13.700Z,6.60
2023-01-09T22:22:40.988Z,6.60
2023-01-09T22:25:08.262Z,6.60
2023-01-09T22:27:35.010Z,6.60
2023-01-09T22:30:01.692Z,6.60
2023-01-09T22:32:28.587Z,6.60
2023-01-09T22:34:55.302Z,6.60
2023-01-09T22:37:22.057Z,6.60
2023-01-09T22:39:48.744Z,6.60
2023-01-09T22:42:15.544Z,6.60
2023-01-09T22:44:42.211Z,6.60
2023-01-09T22:47:09.180Z,6.50
2023-01-09T22:49:52.341Z,6.60
2023-01-09T22:52:19.439Z,6.60
2023-01-09T22:54:46.149Z,6.50
2023-01-09T22:57:12.884Z,6.50
2023-01-09T22:59:40.029Z,6.50
2023-01-09T23:02:07.046Z,6.50
2023-01-09T23:04:33.826Z,6.50
2023-01-09T23:07:00.743Z,6.50
2023-01-09T23:09:28.112Z,6.50
2023-01-09T23:11:57.942Z,6.50
2023-01-09T23:14:26.242Z,6.50
2023-01-09T23:16:54.133Z,6.50
2023-01-09T23:19:20.964Z,6.50
2023-01-09T23:21:47.941Z,6.50
2023-01-09T23:24:15.624Z,6.50
2023-01-09T23:26:43.042Z,6.50
2023-01-09T23:29:10.027Z,6.50
2023-01-09T23:31:37.111Z,6.50
2023-01-09T23:34:04.299Z,6.50
2023-01-09T23:36:31.193Z,6.50
2023-01-09T23:38:57.892Z,6.50
2023-01-09T23:41:24.697Z,6.50
2023-01-09T23:43:52.709Z,6.50
2023-01-09T23:46:26.310Z,6.40
2023-01-09T23:48:52.953Z,6.40
2023-01-09T23:51:19.665Z,6.40
2023-01-09T23:53:46.358Z,6.40
2023-01-09T23:56:13.052Z,6.40
2023-01-09T23:58:39.755Z,6.40
